sensor_id;sensor_type;location;lat;lon;timestamp;P1;durP1;ratioP1;P2;durP2;ratioP2
6424;SDS011;12193;42.642;23.384;2023-03-14T00:00:17;8.30;;;4.73;;
6424;SDS011;12193;42.642;23.384;2023-03-14T00:02:50;8.63;;;5.00;;
6424;SDS011;12193;42.642;23.384;2023-03-14T00:05:20;8.17;;;4.83;;
6424;SDS011;12193;42.642;23.384;2023-03-14T00:07:53;6.93;;;4.33;;
6424;SDS011;12193;42.642;23.384;2023-03-14T00:10:22;8.87;;;4.53;;
6424;SDS011;12193;42.642;23.384;2023-03-14T00:12:51;10.87;;;5.47;;
6424;SDS011;12193;42.642;23.384;2023-03-14T00:15:21;7.60;;;4.63;;
6424;SDS011;12193;42.642;23.384;2023-03-14T00:17:50;9.27;;;4.97;;
6424;SDS011;12193;42.642;23.384;2023-03-14T00:20:19;7.97;;;4.93;;
6424;SDS011;12193;42.642;23.384;2023-03-14T00:22:49;11.33;;;5.30;;
6424;SDS011;12193;42.642;23.384;2023-03-14T00:25:21;10.23;;;5.23;;
6424;SDS011;12193;42.642;23.384;2023-03-14T00:27:50;8.13;;;5.17;;
6424;SDS011;12193;42.642;23.384;2023-03-14T00:30:20;7.27;;;4.40;;
6424;SDS011;12193;42.642;23.384;2023-03-14T00:32:49;10.20;;;5.00;;
6424;SDS011;12193;42.642;23.384;2023-03-14T00:35:19;6.93;;;4.37;;
6424;SDS011;12193;42.642;23.384;2023-03-14T00:37:48;9.23;;;5.17;;
6424;SDS011;12193;42.642;23.384;2023-03-14T00:40:20;9.37;;;4.83;;
6424;SDS011;12193;42.642;23.384;2023-03-14T00:42:49;8.00;;;4.60;;
6424;SDS011;12193;42.642;23.384;2023-03-14T00:45:19;8.33;;;4.47;;
6424;SDS011;12193;42.642;23.384;2023-03-14T00:47:48;8.93;;;5.00;;
6424;SDS011;12193;42.642;23.384;2023-03-14T00:50:17;10.07;;;4.97;;
6424;SDS011;12193;42.642;23.384;2023-03-14T00:52:46;7.97;;;4.47;;
6424;SDS011;12193;42.642;23.384;2023-03-14T00:55:16;9.47;;;5.30;;
6424;SDS011;12193;42.642;23.384;2023-03-14T00:57:48;10.90;;;5.50;;
6424;SDS011;12193;42.642;23.384;2023-03-14T01:00:18;7.63;;;4.30;;
6424;SDS011;12193;42.642;23.384;2023-03-14T01:02:47;6.63;;;4.10;;
6424;SDS011;12193;42.642;23.384;2023-03-14T01:05:16;7.77;;;5.00;;
6424;SDS011;12193;42.642;23.384;2023-03-14T03:58:39;18.13;;;9.73;;
6424;SDS011;12193;42.642;23.384;2023-03-14T04:01:08;19.80;;;9.90;;
6424;SDS011;12193;42.642;23.384;2023-03-14T04:03:39;22.13;;;11.17;;
6424;SDS011;12193;42.642;23.384;2023-03-14T04:06:09;20.23;;;10.07;;
6424;SDS011;12193;42.642;23.384;2023-03-14T04:08:41;20.67;;;10.60;;
6424;SDS011;12193;42.642;23.384;2023-03-14T04:11:10;21.90;;;10.93;;
6424;SDS011;12193;42.642;23.384;2023-03-14T04:13:42;20.77;;;10.33;;
6424;SDS011;12193;42.642;23.384;2023-03-14T04:16:13;22.33;;;10.20;;
6424;SDS011;12193;42.642;23.384;2023-03-14T04:18:45;20.57;;;10.07;;
6424;SDS011;12193;42.642;23.384;2023-03-14T04:21:15;22.53;;;11.00;;
6424;SDS011;12193;42.642;23.384;2023-03-14T04:23:44;22.07;;;10.97;;
6424;SDS011;12193;42.642;23.384;2023-03-14T04:26:13;18.47;;;10.60;;
6424;SDS011;12193;42.642;23.384;2023-03-14T04:28:46;20.73;;;10.30;;
6424;SDS011;12193;42.642;23.384;2023-03-14T04:31:16;22.10;;;11.00;;
6424;SDS011;12193;42.642;23.384;2023-03-14T04:33:49;22.33;;;10.23;;
6424;SDS011;12193;42.642;23.384;2023-03-14T04:36:18;21.40;;;10.23;;
6424;SDS011;12193;42.642;23.384;2023-03-14T04:38:48;21.70;;;10.47;;
6424;SDS011;12193;42.642;23.384;2023-03-14T04:41:17;20.33;;;10.03;;
6424;SDS011;12193;42.642;23.384;2023-03-14T04:43:49;22.70;;;10.80;;
6424;SDS011;12193;42.642;23.384;2023-03-14T04:46:18;18.83;;;10.90;;
6424;SDS011;12193;42.642;23.384;2023-03-14T04:48:48;24.47;;;10.40;;
6424;SDS011;12193;42.642;23.384;2023-03-14T04:51:17;22.77;;;10.43;;
6424;SDS011;12193;42.642;23.384;2023-03-14T04:53:49;21.23;;;10.77;;
6424;SDS011;12193;42.642;23.384;2023-03-14T04:56:18;21.03;;;11.00;;
6424;SDS011;12193;42.642;23.384;2023-03-14T04:58:50;23.50;;;11.03;;
6424;SDS011;12193;42.642;23.384;2023-03-14T05:01:20;13.83;;;6.87;;
6424;SDS011;12193;42.642;23.384;2023-03-14T05:03:49;13.33;;;6.50;;
6424;SDS011;12193;42.642;23.384;2023-03-14T05:06:18;12.73;;;6.60;;
6424;SDS011;12193;42.642;23.384;2023-03-14T05:08:48;13.97;;;7.47;;
6424;SDS011;12193;42.642;23.384;2023-03-14T05:11:17;14.03;;;7.23;;
6424;SDS011;12193;42.642;23.384;2023-03-14T05:13:46;19.80;;;7.80;;
6424;SDS011;12193;42.642;23.384;2023-03-14T05:16:19;16.23;;;7.37;;
6424;SDS011;12193;42.642;23.384;2023-03-14T05:18:48;18.73;;;7.43;;
6424;SDS011;12193;42.642;23.384;2023-03-14T05:21:18;12.63;;;6.73;;
6424;SDS011;12193;42.642;23.384;2023-03-14T05:23:47;14.17;;;7.73;;
6424;SDS011;12193;42.642;23.384;2023-03-14T05:26:17;14.43;;;6.67;;
6424;SDS011;12193;42.642;23.384;2023-03-14T05:28:46;10.07;;;5.57;;
6424;SDS011;12193;42.642;23.384;2023-03-14T05:31:18;8.07;;;5.33;;
6424;SDS011;12193;42.642;23.384;2023-03-14T05:33:48;8.80;;;4.77;;
6424;SDS011;12193;42.642;23.384;2023-03-14T05:36:17;8.93;;;5.10;;
6424;SDS011;12193;42.642;23.384;2023-03-14T05:38:47;11.90;;;5.40;;
6424;SDS011;12193;42.642;23.384;2023-03-14T05:41:16;10.37;;;5.40;;
6424;SDS011;12193;42.642;23.384;2023-03-14T05:43:45;11.40;;;5.27;;
6424;SDS011;12193;42.642;23.384;2023-03-14T05:46:15;8.70;;;5.30;;
6424;SDS011;12193;42.642;23.384;2023-03-14T05:48:47;14.37;;;5.87;;
6424;SDS011;12193;42.642;23.384;2023-03-14T05:51:16;13.13;;;6.00;;
6424;SDS011;12193;42.642;23.384;2023-03-14T05:53:46;12.07;;;6.03;;
6424;SDS011;12193;42.642;23.384;2023-03-14T05:56:15;9.50;;;5.57;;
6424;SDS011;12193;42.642;23.384;2023-03-14T05:58:44;13.07;;;6.57;;
6424;SDS011;12193;42.642;23.384;2023-03-14T06:01:14;10.67;;;6.10;;
6424;SDS011;12193;42.642;23.384;2023-03-14T06:03:45;14.40;;;7.40;;
6424;SDS011;12193;42.642;23.384;2023-03-14T06:06:15;13.73;;;7.43;;
6424;SDS011;12193;42.642;23.384;2023-03-14T06:08:45;15.07;;;7.93;;
6424;SDS011;12193;42.642;23.384;2023-03-14T06:11:14;13.50;;;7.23;;
6424;SDS011;12193;42.642;23.384;2023-03-14T06:13:43;21.90;;;8.93;;
6424;SDS011;12193;42.642;23.384;2023-03-14T06:16:13;17.13;;;8.43;;
6424;SDS011;12193;42.642;23.384;2023-03-14T06:18:42;13.03;;;7.17;;
6424;SDS011;12193;42.642;23.384;2023-03-14T06:21:15;15.70;;;6.93;;
6424;SDS011;12193;42.642;23.384;2023-03-14T06:23:45;12.90;;;6.90;;
6424;SDS011;12193;42.642;23.384;2023-03-14T06:26:14;14.63;;;6.63;;
6424;SDS011;12193;42.642;23.384;2023-03-14T06:28:43;13.07;;;7.10;;
6424;SDS011;12193;42.642;23.384;2023-03-14T06:31:13;15.03;;;7.23;;
6424;SDS011;12193;42.642;23.384;2023-03-14T06:33:42;15.63;;;7.37;;
6424;SDS011;12193;42.642;23.384;2023-03-14T06:36:11;11.77;;;7.20;;
6424;SDS011;12193;42.642;23.384;2023-03-14T06:38:43;17.40;;;7.67;;
6424;SDS011;12193;42.642;23.384;2023-03-14T06:41:13;14.03;;;7.07;;
6424;SDS011;12193;42.642;23.384;2023-03-14T06:43:42;14.20;;;7.00;;
6424;SDS011;12193;42.642;23.384;2023-03-14T06:46:11;12.33;;;6.53;;
6424;SDS011;12193;42.642;23.384;2023-03-14T06:48:41;14.30;;;7.77;;
6424;SDS011;12193;42.642;23.384;2023-03-14T06:51:10;14.43;;;7.03;;
6424;SDS011;12193;42.642;23.384;2023-03-14T06:53:40;10.40;;;6.70;;
6424;SDS011;12193;42.642;23.384;2023-03-14T06:56:12;16.20;;;6.73;;
6424;SDS011;12193;42.642;23.384;2023-03-14T06:58:41;12.10;;;7.13;;
6424;SDS011;12193;42.642;23.384;2023-03-14T07:01:15;13.57;;;7.10;;
6424;SDS011;12193;42.642;23.384;2023-03-14T07:03:50;11.07;;;6.47;;
6424;SDS011;12193;42.642;23.384;2023-03-14T07:06:19;13.67;;;7.43;;
6424;SDS011;12193;42.642;23.384;2023-03-14T07:08:51;12.80;;;7.40;;
6424;SDS011;12193;42.642;23.384;2023-03-14T07:11:21;15.33;;;7.20;;
6424;SDS011;12193;42.642;23.384;2023-03-14T07:13:51;14.67;;;7.50;;
6424;SDS011;12193;42.642;23.384;2023-03-14T07:16:20;16.83;;;7.30;;
6424;SDS011;12193;42.642;23.384;2023-03-14T07:18:49;13.70;;;7.90;;
6424;SDS011;12193;42.642;23.384;2023-03-14T07:21:18;18.83;;;7.83;;
6424;SDS011;12193;42.642;23.384;2023-03-14T07:23:48;12.03;;;7.20;;
6424;SDS011;12193;42.642;23.384;2023-03-14T07:26:20;17.70;;;8.00;;
6424;SDS011;12193;42.642;23.384;2023-03-14T07:28:49;13.70;;;7.93;;
6424;SDS011;12193;42.642;23.384;2023-03-14T07:31:19;15.33;;;8.00;;
6424;SDS011;12193;42.642;23.384;2023-03-14T07:33:48;14.37;;;7.63;;
6424;SDS011;12193;42.642;23.384;2023-03-14T07:36:17;11.53;;;6.83;;
6424;SDS011;12193;42.642;23.384;2023-03-14T07:38:47;13.00;;;7.53;;
6424;SDS011;12193;42.642;23.384;2023-03-14T07:41:20;11.80;;;7.23;;
6424;SDS011;12193;42.642;23.384;2023-03-14T07:43:49;11.20;;;6.80;;
6424;SDS011;12193;42.642;23.384;2023-03-14T07:46:18;19.00;;;7.33;;
6424;SDS011;12193;42.642;23.384;2023-03-14T07:48:48;14.23;;;8.50;;
6424;SDS011;12193;42.642;23.384;2023-03-14T07:51:17;17.10;;;8.27;;
6424;SDS011;12193;42.642;23.384;2023-03-14T07:53:47;14.20;;;8.53;;
6424;SDS011;12193;42.642;23.384;2023-03-14T07:56:16;14.80;;;7.97;;
6424;SDS011;12193;42.642;23.384;2023-03-14T07:58:48;15.57;;;8.53;;
6424;SDS011;12193;42.642;23.384;2023-03-14T08:01:17;24.77;;;10.90;;
6424;SDS011;12193;42.642;23.384;2023-03-14T08:03:46;20.90;;;10.87;;
6424;SDS011;12193;42.642;23.384;2023-03-14T08:06:16;21.57;;;11.33;;
6424;SDS011;12193;42.642;23.384;2023-03-14T08:08:45;20.60;;;12.60;;
6424;SDS011;12193;42.642;23.384;2023-03-14T08:11:14;26.20;;;12.53;;
6424;SDS011;12193;42.642;23.384;2023-03-14T08:13:44;22.40;;;12.33;;
6424;SDS011;12193;42.642;23.384;2023-03-14T08:16:18;23.20;;;11.13;;
6424;SDS011;12193;42.642;23.384;2023-03-14T08:18:48;21.70;;;11.03;;
6424;SDS011;12193;42.642;23.384;2023-03-14T08:21:17;23.10;;;11.53;;
6424;SDS011;12193;42.642;23.384;2023-03-14T08:23:47;26.63;;;12.07;;
6424;SDS011;12193;42.642;23.384;2023-03-14T08:26:16;19.33;;;10.77;;
6424;SDS011;12193;42.642;23.384;2023-03-14T08:28:45;19.53;;;10.87;;
6424;SDS011;12193;42.642;23.384;2023-03-14T08:31:15;21.27;;;11.50;;
6424;SDS011;12193;42.642;23.384;2023-03-14T08:33:47;20.57;;;11.73;;
6424;SDS011;12193;42.642;23.384;2023-03-14T08:36:18;22.53;;;10.87;;
6424;SDS011;12193;42.642;23.384;2023-03-14T08:38:47;20.53;;;10.97;;
6424;SDS011;12193;42.642;23.384;2023-03-14T08:41:16;20.57;;;11.20;;
6424;SDS011;12193;42.642;23.384;2023-03-14T08:43:46;19.07;;;10.63;;
6424;SDS011;12193;42.642;23.384;2023-03-14T08:46:18;23.83;;;11.00;;
6424;SDS011;12193;42.642;23.384;2023-03-14T08:48:47;23.57;;;10.23;;
6424;SDS011;12193;42.642;23.384;2023-03-14T08:51:16;19.33;;;10.17;;
6424;SDS011;12193;42.642;23.384;2023-03-14T08:53:46;14.83;;;9.60;;
6424;SDS011;12193;42.642;23.384;2023-03-14T08:56:15;15.43;;;9.30;;
6424;SDS011;12193;42.642;23.384;2023-03-14T08:58:44;17.47;;;10.03;;
6424;SDS011;12193;42.642;23.384;2023-03-14T09:01:14;18.37;;;9.67;;
6424;SDS011;12193;42.642;23.384;2023-03-14T09:03:47;19.07;;;9.67;;
6424;SDS011;12193;42.642;23.384;2023-03-14T09:06:17;19.83;;;9.53;;
6424;SDS011;12193;42.642;23.384;2023-03-14T09:08:46;20.33;;;9.13;;
6424;SDS011;12193;42.642;23.384;2023-03-14T09:11:16;16.30;;;9.20;;
6424;SDS011;12193;42.642;23.384;2023-03-14T09:13:46;20.20;;;9.63;;
6424;SDS011;12193;42.642;23.384;2023-03-14T09:16:15;16.33;;;8.60;;
6424;SDS011;12193;42.642;23.384;2023-03-14T09:18:47;15.63;;;9.50;;
6424;SDS011;12193;42.642;23.384;2023-03-14T09:21:20;16.20;;;9.40;;
6424;SDS011;12193;42.642;23.384;2023-03-14T09:23:49;16.13;;;8.80;;
6424;SDS011;12193;42.642;23.384;2023-03-14T09:26:19;21.43;;;9.37;;
6424;SDS011;12193;42.642;23.384;2023-03-14T09:28:48;14.10;;;8.33;;
6424;SDS011;12193;42.642;23.384;2023-03-14T09:31:18;13.80;;;7.20;;
6424;SDS011;12193;42.642;23.384;2023-03-14T09:33:50;13.67;;;6.27;;
6424;SDS011;12193;42.642;23.384;2023-03-14T09:36:19;14.07;;;6.90;;
6424;SDS011;12193;42.642;23.384;2023-03-14T09:38:49;13.23;;;7.47;;
6424;SDS011;12193;42.642;23.384;2023-03-14T09:41:20;14.73;;;6.83;;
6424;SDS011;12193;42.642;23.384;2023-03-14T09:43:53;11.90;;;6.73;;
6424;SDS011;12193;42.642;23.384;2023-03-14T09:46:29;11.60;;;6.43;;
6424;SDS011;12193;42.642;23.384;2023-03-14T09:49:07;11.27;;;6.50;;
6424;SDS011;12193;42.642;23.384;2023-03-14T09:51:41;11.40;;;7.33;;
6424;SDS011;12193;42.642;23.384;2023-03-14T09:54:18;13.03;;;7.13;;
6424;SDS011;12193;42.642;23.384;2023-03-14T09:57:00;13.77;;;6.70;;
6424;SDS011;12193;42.642;23.384;2023-03-14T09:59:29;11.57;;;6.67;;
6424;SDS011;12193;42.642;23.384;2023-03-14T10:02:00;10.17;;;6.03;;
6424;SDS011;12193;42.642;23.384;2023-03-14T10:04:43;11.10;;;6.67;;
6424;SDS011;12193;42.642;23.384;2023-03-14T10:07:14;10.07;;;6.37;;
6424;SDS011;12193;42.642;23.384;2023-03-14T10:09:45;12.10;;;6.50;;
6424;SDS011;12193;42.642;23.384;2023-03-14T10:12:17;11.87;;;6.20;;
6424;SDS011;12193;42.642;23.384;2023-03-14T10:14:47;10.70;;;6.80;;
6424;SDS011;12193;42.642;23.384;2023-03-14T10:17:20;10.73;;;6.53;;
6424;SDS011;12193;42.642;23.384;2023-03-14T10:19:56;9.10;;;6.17;;
6424;SDS011;12193;42.642;23.384;2023-03-14T10:22:27;8.50;;;6.10;;
6424;SDS011;12193;42.642;23.384;2023-03-14T10:25:00;12.67;;;6.13;;
6424;SDS011;12193;42.642;23.384;2023-03-14T10:27:32;9.00;;;5.07;;
6424;SDS011;12193;42.642;23.384;2023-03-14T10:30:04;9.50;;;5.20;;
6424;SDS011;12193;42.642;23.384;2023-03-14T10:32:55;7.97;;;5.30;;
6424;SDS011;12193;42.642;23.384;2023-03-14T10:35:27;7.90;;;4.67;;
6424;SDS011;12193;42.642;23.384;2023-03-14T10:38:03;6.47;;;4.27;;
6424;SDS011;12193;42.642;23.384;2023-03-14T10:40:32;6.30;;;4.13;;
6424;SDS011;12193;42.642;23.384;2023-03-14T10:43:13;6.67;;;4.20;;
6424;SDS011;12193;42.642;23.384;2023-03-14T10:45:51;7.00;;;4.13;;
6424;SDS011;12193;42.642;23.384;2023-03-14T10:48:24;6.90;;;3.83;;
6424;SDS011;12193;42.642;23.384;2023-03-14T10:51:06;6.33;;;4.20;;
6424;SDS011;12193;42.642;23.384;2023-03-14T10:53:39;5.47;;;3.97;;
6424;SDS011;12193;42.642;23.384;2023-03-14T10:56:12;8.13;;;4.30;;
6424;SDS011;12193;42.642;23.384;2023-03-14T10:58:43;7.37;;;4.10;;
6424;SDS011;12193;42.642;23.384;2023-03-14T11:01:26;8.73;;;3.83;;
6424;SDS011;12193;42.642;23.384;2023-03-14T11:04:09;8.60;;;3.83;;
6424;SDS011;12193;42.642;23.384;2023-03-14T11:06:50;5.63;;;3.70;;
6424;SDS011;12193;42.642;23.384;2023-03-14T11:09:28;5.10;;;3.70;;
6424;SDS011;12193;42.642;23.384;2023-03-14T11:12:02;5.47;;;3.80;;
6424;SDS011;12193;42.642;23.384;2023-03-14T11:14:46;5.10;;;3.70;;
6424;SDS011;12193;42.642;23.384;2023-03-14T11:17:22;6.43;;;4.00;;
6424;SDS011;12193;42.642;23.384;2023-03-14T11:19:57;6.70;;;3.73;;
6424;SDS011;12193;42.642;23.384;2023-03-14T11:22:42;7.33;;;3.50;;
6424;SDS011;12193;42.642;23.384;2023-03-14T11:25:21;4.80;;;2.87;;
6424;SDS011;12193;42.642;23.384;2023-03-14T11:27:57;7.07;;;3.23;;
6424;SDS011;12193;42.642;23.384;2023-03-14T11:30:37;5.93;;;4.00;;
6424;SDS011;12193;42.642;23.384;2023-03-14T11:33:13;6.73;;;3.80;;
6424;SDS011;12193;42.642;23.384;2023-03-14T11:35:45;5.23;;;3.93;;
6424;SDS011;12193;42.642;23.384;2023-03-14T11:38:25;6.30;;;3.80;;
6424;SDS011;12193;42.642;23.384;2023-03-14T11:40:58;7.03;;;3.77;;
6424;SDS011;12193;42.642;23.384;2023-03-14T11:43:29;8.07;;;3.90;;
6424;SDS011;12193;42.642;23.384;2023-03-14T11:46:04;5.63;;;3.53;;
6424;SDS011;12193;42.642;23.384;2023-03-14T11:48:39;5.13;;;3.50;;
6424;SDS011;12193;42.642;23.384;2023-03-14T11:51:14;8.00;;;3.27;;
6424;SDS011;12193;42.642;23.384;2023-03-14T11:53:53;6.27;;;3.40;;
6424;SDS011;12193;42.642;23.384;2023-03-14T11:56:29;6.03;;;3.87;;
6424;SDS011;12193;42.642;23.384;2023-03-14T11:59:04;7.80;;;4.00;;
6424;SDS011;12193;42.642;23.384;2023-03-14T12:01:44;6.33;;;3.63;;
6424;SDS011;12193;42.642;23.384;2023-03-14T12:04:22;4.43;;;3.10;;
6424;SDS011;12193;42.642;23.384;2023-03-14T12:07:04;4.70;;;2.93;;
6424;SDS011;12193;42.642;23.384;2023-03-14T12:09:44;8.33;;;3.03;;
6424;SDS011;12193;42.642;23.384;2023-03-14T12:12:16;8.57;;;3.00;;
6424;SDS011;12193;42.642;23.384;2023-03-14T12:14:53;5.73;;;3.27;;
6424;SDS011;12193;42.642;23.384;2023-03-14T12:17:25;5.60;;;3.00;;
6424;SDS011;12193;42.642;23.384;2023-03-14T12:20:04;3.67;;;2.60;;
6424;SDS011;12193;42.642;23.384;2023-03-14T12:22:44;3.70;;;2.60;;
6424;SDS011;12193;42.642;23.384;2023-03-14T12:25:18;4.50;;;3.00;;
6424;SDS011;12193;42.642;23.384;2023-03-14T12:30:47;5.10;;;2.97;;
6424;SDS011;12193;42.642;23.384;2023-03-14T12:39:13;2.90;;;2.40;;
6424;SDS011;12193;42.642;23.384;2023-03-14T12:42:00;4.83;;;2.87;;
6424;SDS011;12193;42.642;23.384;2023-03-14T12:50:20;4.80;;;2.30;;
6424;SDS011;12193;42.642;23.384;2023-03-14T12:56:06;5.43;;;2.60;;
6424;SDS011;12193;42.642;23.384;2023-03-14T12:58:48;3.57;;;2.60;;
6424;SDS011;12193;42.642;23.384;2023-03-14T13:01:28;2.83;;;2.17;;
6424;SDS011;12193;42.642;23.384;2023-03-14T13:03:58;5.27;;;2.50;;
6424;SDS011;12193;42.642;23.384;2023-03-14T13:06:47;4.97;;;2.30;;
6424;SDS011;12193;42.642;23.384;2023-03-14T13:12:19;3.97;;;2.37;;
6424;SDS011;12193;42.642;23.384;2023-03-14T13:14:59;3.50;;;2.10;;
6424;SDS011;12193;42.642;23.384;2023-03-14T13:17:31;3.27;;;2.33;;
6424;SDS011;12193;42.642;23.384;2023-03-14T13:20:03;3.63;;;2.20;;
6424;SDS011;12193;42.642;23.384;2023-03-14T13:22:45;7.20;;;2.43;;
6424;SDS011;12193;42.642;23.384;2023-03-14T13:25:16;3.77;;;2.10;;
6424;SDS011;12193;42.642;23.384;2023-03-14T13:27:47;4.47;;;2.23;;
6424;SDS011;12193;42.642;23.384;2023-03-14T13:30:22;3.00;;;2.07;;
6424;SDS011;12193;42.642;23.384;2023-03-14T13:32:53;4.60;;;2.30;;
6424;SDS011;12193;42.642;23.384;2023-03-14T13:35:25;4.23;;;2.30;;
6424;SDS011;12193;42.642;23.384;2023-03-14T13:37:56;3.87;;;2.30;;
6424;SDS011;12193;42.642;23.384;2023-03-14T13:40:29;2.97;;;2.27;;
6424;SDS011;12193;42.642;23.384;2023-03-14T13:43:01;3.43;;;2.20;;
6424;SDS011;12193;42.642;23.384;2023-03-14T13:45:43;4.30;;;2.30;;
6424;SDS011;12193;42.642;23.384;2023-03-14T13:48:14;3.63;;;2.20;;
6424;SDS011;12193;42.642;23.384;2023-03-14T13:50:54;4.83;;;2.03;;
6424;SDS011;12193;42.642;23.384;2023-03-14T13:53:27;3.20;;;2.20;;
6424;SDS011;12193;42.642;23.384;2023-03-14T13:55:56;2.70;;;2.13;;
6424;SDS011;12193;42.642;23.384;2023-03-14T13:58:29;4.47;;;2.50;;
6424;SDS011;12193;42.642;23.384;2023-03-14T14:01:04;4.57;;;2.30;;
6424;SDS011;12193;42.642;23.384;2023-03-14T14:03:39;5.07;;;2.30;;
6424;SDS011;12193;42.642;23.384;2023-03-14T14:06:11;3.40;;;2.20;;
6424;SDS011;12193;42.642;23.384;2023-03-14T14:08:50;3.90;;;2.60;;
6424;SDS011;12193;42.642;23.384;2023-03-14T14:11:25;4.00;;;2.20;;
6424;SDS011;12193;42.642;23.384;2023-03-14T14:14:05;4.87;;;2.30;;
6424;SDS011;12193;42.642;23.384;2023-03-14T14:16:42;2.17;;;1.80;;
6424;SDS011;12193;42.642;23.384;2023-03-14T14:19:13;3.50;;;2.43;;
6424;SDS011;12193;42.642;23.384;2023-03-14T14:21:44;4.07;;;2.67;;
6424;SDS011;12193;42.642;23.384;2023-03-14T14:24:14;5.40;;;2.17;;
6424;SDS011;12193;42.642;23.384;2023-03-14T14:26:46;5.33;;;2.50;;
6424;SDS011;12193;42.642;23.384;2023-03-14T14:29:21;8.20;;;2.60;;
6424;SDS011;12193;42.642;23.384;2023-03-14T14:32:09;6.90;;;2.30;;
6424;SDS011;12193;42.642;23.384;2023-03-14T14:34:41;3.50;;;2.00;;
6424;SDS011;12193;42.642;23.384;2023-03-14T14:37:19;3.20;;;1.93;;
6424;SDS011;12193;42.642;23.384;2023-03-14T14:39:49;3.13;;;2.00;;
6424;SDS011;12193;42.642;23.384;2023-03-14T14:42:21;4.23;;;2.13;;
6424;SDS011;12193;42.642;23.384;2023-03-14T14:44:53;2.63;;;1.73;;
6424;SDS011;12193;42.642;23.384;2023-03-14T14:47:27;3.53;;;2.13;;
6424;SDS011;12193;42.642;23.384;2023-03-14T14:49:58;1.30;;;1.20;;
6424;SDS011;12193;42.642;23.384;2023-03-14T14:52:34;3.97;;;2.00;;
6424;SDS011;12193;42.642;23.384;2023-03-14T14:55:13;1.73;;;1.40;;
6424;SDS011;12193;42.642;23.384;2023-03-14T14:57:50;3.60;;;1.90;;
6424;SDS011;12193;42.642;23.384;2023-03-14T15:00:22;2.67;;;1.83;;
6424;SDS011;12193;42.642;23.384;2023-03-14T15:02:58;1.60;;;1.47;;
6424;SDS011;12193;42.642;23.384;2023-03-14T15:05:28;4.47;;;2.10;;
6424;SDS011;12193;42.642;23.384;2023-03-14T15:08:02;2.43;;;1.80;;
6424;SDS011;12193;42.642;23.384;2023-03-14T15:10:31;2.53;;;2.00;;
6424;SDS011;12193;42.642;23.384;2023-03-14T15:13:00;4.17;;;2.27;;
6424;SDS011;12193;42.642;23.384;2023-03-14T15:15:29;3.50;;;2.30;;
6424;SDS011;12193;42.642;23.384;2023-03-14T15:18:04;2.73;;;2.30;;
6424;SDS011;12193;42.642;23.384;2023-03-14T15:20:41;4.77;;;3.37;;
6424;SDS011;12193;42.642;23.384;2023-03-14T15:23:11;2.57;;;2.00;;
6424;SDS011;12193;42.642;23.384;2023-03-14T15:25:42;2.27;;;1.90;;
6424;SDS011;12193;42.642;23.384;2023-03-14T15:28:14;4.03;;;2.07;;
6424;SDS011;12193;42.642;23.384;2023-03-14T15:30:45;3.33;;;2.00;;
6424;SDS011;12193;42.642;23.384;2023-03-14T15:33:18;2.73;;;1.90;;
6424;SDS011;12193;42.642;23.384;2023-03-14T15:35:48;3.33;;;1.97;;
6424;SDS011;12193;42.642;23.384;2023-03-14T15:38:19;3.67;;;1.90;;
6424;SDS011;12193;42.642;23.384;2023-03-14T15:40:49;3.23;;;2.10;;
6424;SDS011;12193;42.642;23.384;2023-03-14T15:43:19;4.93;;;2.40;;
6424;SDS011;12193;42.642;23.384;2023-03-14T15:45:48;3.53;;;2.37;;
6424;SDS011;12193;42.642;23.384;2023-03-14T15:48:20;5.60;;;2.47;;
6424;SDS011;12193;42.642;23.384;2023-03-14T15:50:50;2.77;;;2.10;;
6424;SDS011;12193;42.642;23.384;2023-03-14T15:53:20;5.30;;;2.50;;
6424;SDS011;12193;42.642;23.384;2023-03-14T15:55:49;4.07;;;2.57;;
6424;SDS011;12193;42.642;23.384;2023-03-14T15:58:19;4.77;;;3.13;;
6424;SDS011;12193;42.642;23.384;2023-03-14T16:00:49;6.60;;;2.90;;
6424;SDS011;12193;42.642;23.384;2023-03-14T16:03:21;6.63;;;2.70;;
6424;SDS011;12193;42.642;23.384;2023-03-14T16:05:51;5.27;;;2.47;;
6424;SDS011;12193;42.642;23.384;2023-03-14T16:08:21;3.47;;;2.50;;
6424;SDS011;12193;42.642;23.384;2023-03-14T16:10:51;5.97;;;2.30;;
6424;SDS011;12193;42.642;23.384;2023-03-14T16:13:20;3.87;;;2.20;;
6424;SDS011;12193;42.642;23.384;2023-03-14T16:15:53;8.23;;;2.90;;
6424;SDS011;12193;42.642;23.384;2023-03-14T16:18:27;4.33;;;2.60;;
6424;SDS011;12193;42.642;23.384;2023-03-14T16:20:58;4.30;;;2.53;;
6424;SDS011;12193;42.642;23.384;2023-03-14T16:23:30;4.47;;;2.77;;
6424;SDS011;12193;42.642;23.384;2023-03-14T16:26:02;6.33;;;3.80;;
6424;SDS011;12193;42.642;23.384;2023-03-14T16:28:33;6.83;;;3.47;;
6424;SDS011;12193;42.642;23.384;2023-03-14T16:31:03;8.20;;;2.97;;
6424;SDS011;12193;42.642;23.384;2023-03-14T16:33:36;4.57;;;2.80;;
6424;SDS011;12193;42.642;23.384;2023-03-14T16:36:07;8.00;;;2.13;;
6424;SDS011;12193;42.642;23.384;2023-03-14T16:38:39;4.60;;;3.00;;
6424;SDS011;12193;42.642;23.384;2023-03-14T16:41:10;5.10;;;3.30;;
6424;SDS011;12193;42.642;23.384;2023-03-14T16:43:41;9.20;;;3.70;;
6424;SDS011;12193;42.642;23.384;2023-03-14T16:46:11;4.87;;;2.83;;
6424;SDS011;12193;42.642;23.384;2023-03-14T16:48:46;6.37;;;3.30;;
6424;SDS011;12193;42.642;23.384;2023-03-14T16:51:15;7.13;;;3.47;;
6424;SDS011;12193;42.642;23.384;2023-03-14T16:53:45;7.60;;;4.03;;
6424;SDS011;12193;42.642;23.384;2023-03-14T16:56:15;5.23;;;3.67;;
6424;SDS011;12193;42.642;23.384;2023-03-14T16:58:44;6.97;;;3.47;;
6424;SDS011;12193;42.642;23.384;2023-03-14T17:01:15;7.57;;;4.27;;
6424;SDS011;12193;42.642;23.384;2023-03-14T17:03:48;6.10;;;3.57;;
6424;SDS011;12193;42.642;23.384;2023-03-14T17:06:20;5.00;;;3.40;;
6424;SDS011;12193;42.642;23.384;2023-03-14T17:08:52;5.73;;;2.93;;
6424;SDS011;12193;42.642;23.384;2023-03-14T17:11:22;5.27;;;3.27;;
6424;SDS011;12193;42.642;23.384;2023-03-14T17:13:52;7.37;;;3.90;;
6424;SDS011;12193;42.642;23.384;2023-03-14T17:16:21;7.07;;;3.73;;
6424;SDS011;12193;42.642;23.384;2023-03-14T17:18:53;8.50;;;4.10;;
6424;SDS011;12193;42.642;23.384;2023-03-14T17:21:23;7.23;;;3.73;;
6424;SDS011;12193;42.642;23.384;2023-03-14T17:23:53;6.47;;;3.37;;
6424;SDS011;12193;42.642;23.384;2023-03-14T17:26:22;6.03;;;3.23;;
6424;SDS011;12193;42.642;23.384;2023-03-14T17:28:51;9.07;;;3.80;;
6424;SDS011;12193;42.642;23.384;2023-03-14T17:31:21;6.63;;;3.57;;
6424;SDS011;12193;42.642;23.384;2023-03-14T17:33:53;10.03;;;5.20;;
6424;SDS011;12193;42.642;23.384;2023-03-14T17:36:22;11.70;;;5.77;;
6424;SDS011;12193;42.642;23.384;2023-03-14T17:38:55;9.30;;;4.30;;
6424;SDS011;12193;42.642;23.384;2023-03-14T17:41:24;8.53;;;4.43;;
6424;SDS011;12193;42.642;23.384;2023-03-14T17:43:54;5.37;;;3.07;;
6424;SDS011;12193;42.642;23.384;2023-03-14T17:46:23;7.77;;;4.00;;
6424;SDS011;12193;42.642;23.384;2023-03-14T17:48:55;8.93;;;4.97;;
6424;SDS011;12193;42.642;23.384;2023-03-14T17:51:24;6.53;;;3.70;;
6424;SDS011;12193;42.642;23.384;2023-03-14T17:53:54;4.33;;;2.70;;
6424;SDS011;12193;42.642;23.384;2023-03-14T17:56:23;3.23;;;2.43;;
6424;SDS011;12193;42.642;23.384;2023-03-14T17:58:52;4.87;;;2.60;;
6424;SDS011;12193;42.642;23.384;2023-03-14T18:01:24;4.63;;;2.83;;
6424;SDS011;12193;42.642;23.384;2023-03-14T18:03:56;4.13;;;2.80;;
6424;SDS011;12193;42.642;23.384;2023-03-14T18:06:26;6.93;;;2.73;;
6424;SDS011;12193;42.642;23.384;2023-03-14T18:08:56;4.70;;;2.57;;
6424;SDS011;12193;42.642;23.384;2023-03-14T18:11:29;6.73;;;2.70;;
6424;SDS011;12193;42.642;23.384;2023-03-14T18:13:58;5.93;;;2.00;;
6424;SDS011;12193;42.642;23.384;2023-03-14T18:16:32;6.20;;;3.20;;
6424;SDS011;12193;42.642;23.384;2023-03-14T18:19:04;7.97;;;4.03;;